SANT Airport Information

Runway Information
Runway 1 Length 9514 ft width 148 ft
Elevation 1439 ft Threshold 0 ft Heading 10
Runway 19 Length 9514 ft Width 148 ft
Elevation 1493 ft Threshold 0 ft Heading 190
Airport Frequencies
Type RDO Name TUCUMAN RD Frequency 122.5 MHZ
Type TWR Name TUCUMAN TW Frequency 119.5 MHZ
Airport Navaids
Type VOR-DME Name Tucuman Frequency 114100 KHZ
Airport Weather Information & NOTAM
ADDS - METARS form results

(2206 UTC 22 July 2018)
 
METAR text: SANT 222200Z 18008KT 8000 NSC 15/01 Q1018
Conditions at: SANT (TUCUMAN/TENIENTE, AR) observed 2200 UTC 22 July 2018
Temperature: 15.0°C (59°F)
Dewpoint: 1.0°C (34°F) [RH = 39%]
Pressure (altimeter): 30.06 inches Hg (1018.0 mb)
Winds: from the S (180 degrees) at 9 MPH (8 knots; 4.2 m/s)
Visibility: 5 miles (8 km)
Ceiling: at least 12,000 feet AGL
Clouds: sky clear below 12,000 feet AGL
Weather: no significant weather observed at this time